Aviation Digital Data Service (ADDS)

Output produced by METARs form (1558 UTC 20 September 2014)
found at http://www.aviationweather.gov/adds/metars/
 
KSEG 201553Z AUTO 18006G15KT 7SM BKN021 BKN026 OVC060 20/14 A3021 RMK AO2 SLP227 T02000144
KSEG 201453Z AUTO 18007KT 150V220 7SM BKN019 OVC025 19/14 A3024 RMK AO2 SLP237 T01890144 58003
KSEG 201353Z AUTO 17007KT 6SM HZ BKN017 BKN027 OVC055 18/14 A3025 RMK AO2 SLP242 T01830144
KSEG 201302Z AUTO VRB06KT 6SM HZ BKN027 OVC060 18/14 A3025 RMK AO2 T01780144
KSEG 201253Z AUTO VRB06KT 6SM HZ SCT029 OVC060 18/14 A3025 RMK AO2 SLP242 T01780144
KSEG 201153Z AUTO 17005KT 6SM HZ BKN030 OVC060 17/14 A3024 RMK AO2 SLP240 T01720139 10172 20161 56003
KSEG 201110Z AUTO 17008KT 6SM HZ SCT017 BKN033 OVC060 17/14 A3024 RMK AO2 T01720139
KSEG 201053Z AUTO 17007KT 7SM BKN018 OVC035 17/14 A3025 RMK AO2 SLP241 T01720139
KSEG 200953Z AUTO 18004KT 7SM OVC015 17/13 A3025 RMK AO2 SLP241 T01670133
KSEG 200853Z AUTO VRB05KT 7SM OVC016 17/13 A3025 RMK AO2 SLP243 T01670133 56010
KSEG 200753Z AUTO 18005KT 7SM OVC017 16/13 A3026 RMK AO2 SLP244 T01610128
KSEG 200653Z AUTO 17008KT 8SM OVC018 16/13 A3027 RMK AO2 SLP250 T01610128
KSEG 200553Z AUTO 18006KT 8SM OVC019 16/12 A3028 RMK AO2 SLP253 T01610122 10172 20161 56001
KSEG 200453Z AUTO 17004KT 9SM OVC021 17/12 A3029 RMK AO2 SLP255 T01670122 402220067
KSEG 200353Z AUTO VRB06G18KT 9SM OVC024 17/12 A3027 RMK AO2 SLP250 T01670117
KSEG 200327Z AUTO 15007KT 10SM BKN024 BKN034 17/12 A3028 RMK AO2 T01670117
KSEG 200253Z AUTO 16010KT 10SM OVC034 17/12 A3028 RMK AO2 SLP255 T01670117 53001
KSEG 200153Z AUTO 16007KT 140V200 10SM SCT075 17/11 A3028 RMK AO2 SLP253 T01720111
KSEG 200053Z AUTO 15007KT 10SM BKN070 17/11 A3028 RMK AO2 SLP252 T01720111
KSEG 192353Z AUTO 14004KT 10SM FEW050 BKN070 17/11 A3028 RMK AO2 SLP253 T01720111 10222 20172 53008
KSEG 192253Z AUTO 16005KT 10SM BKN055 BKN075 18/11 A3026 RMK AO2 SLP248 T01780111
KSEG 192153Z AUTO 14007KT 10SM BKN050 OVC055 20/11 A3025 RMK AO2 SLP244 T02000106
KSEG 192053Z AUTO 15005KT 10SM SCT055 21/10 A3026 RMK AO2 SLP245 T02060100 57014
KSEG 191953Z AUTO 00000KT 10SM CLR 22/10 A3027 RMK AO2 SLP249 T02170100
KSEG 191853Z AUTO VRB03KT 10SM FEW045 21/10 A3029 RMK AO2 SLP255 T02110100
KSEG 191753Z AUTO VRB03KT 10SM CLR 21/09 A3030 RMK AO2 SLP258 T02060094 10206 20100 58009
KSEG 191653Z AUTO 00000KT 10SM CLR 19/09 A3031 RMK AO2 SLP263 T01890089
KSEG 191553Z AUTO VRB04KT 10SM CLR 17/07 A3031 RMK AO2 SLP265 T01720072
KSEG 191453Z AUTO VRB04KT 10SM CLR 16/08 A3032 RMK AO2 SLP268 T01560078 51007
KSEG 191353Z AUTO 01004KT 10SM CLR 14/08 A3032 RMK AO2 SLP267 T01440078
KSEG 191253Z AUTO VRB05KT 10SM CLR 12/08 A3031 RMK AO2 SLP266 T01220078
KSEG 191153Z AUTO VRB04KT 9SM CLR 10/08 A3030 RMK AO2 SLP262 T01000083 10117 20067 51022
KSEG 191053Z AUTO 00000KT 7SM CLR 07/06 A3029 RMK AO2 SLP257 T00670056
KSEG 190953Z AUTO 00000KT 9SM CLR 07/06 A3026 RMK AO2 SLP248 T00720061
KSEG 190853Z AUTO 33003KT 10SM CLR 08/07 A3024 RMK AO2 SLP239 T00830067 53012
KSEG 190753Z AUTO 33004KT 10SM CLR 09/08 A3022 RMK AO2 SLP233 T00890078
KSEG 190735Z AUTO 34004KT 10SM SCT020 09/08 A3022 RMK AO2 T00940078
KSEG 190708Z AUTO 33003KT 10SM BKN022 10/08 A3021 RMK AO2 T01000083
KSEG 190653Z AUTO 35004KT 10SM FEW022 09/08 A3021 RMK AO2 SLP228 T00940078
KSEG 190553Z AUTO 36004KT 10SM CLR 12/08 A3020 RMK AO2 SLP226 T01220083 10150 20106 51017
KSEG 190453Z AUTO 03004KT 10SM CLR 12/09 A3019 RMK AO2 SLP220 T01220089 402330078